sensor_id;sensor_type;location;lat;lon;timestamp;P1;durP1;ratioP1;P2;durP2;ratioP2
64714;SDS011;51144;53.002;6.506;2023-04-03T00:00:49;0.95;;;0.20;;
64714;SDS011;51144;53.002;6.506;2023-04-03T00:03:15;2.28;;;0.82;;
64714;SDS011;51144;53.002;6.506;2023-04-03T00:05:41;1.33;;;0.28;;
64714;SDS011;51144;53.002;6.506;2023-04-03T00:08:07;2.63;;;0.70;;
64714;SDS011;51144;53.002;6.506;2023-04-03T00:10:34;1.63;;;0.20;;
64714;SDS011;51144;53.002;6.506;2023-04-03T00:13:01;3.65;;;0.35;;
64714;SDS011;51144;53.002;6.506;2023-04-03T00:15:27;1.25;;;0.38;;
64714;SDS011;51144;53.002;6.506;2023-04-03T00:17:53;0.85;;;0.20;;
64714;SDS011;51144;53.002;6.506;2023-04-03T00:20:19;1.25;;;0.20;;
64714;SDS011;51144;53.002;6.506;2023-04-03T00:22:45;2.63;;;0.65;;
64714;SDS011;51144;53.002;6.506;2023-04-03T00:25:11;0.50;;;0.30;;
64714;SDS011;51144;53.002;6.506;2023-04-03T00:27:37;1.48;;;0.20;;
64714;SDS011;51144;53.002;6.506;2023-04-03T00:30:05;0.60;;;0.20;;
64714;SDS011;51144;53.002;6.506;2023-04-03T00:32:32;4.65;;;0.30;;
64714;SDS011;51144;53.002;6.506;2023-04-03T00:34:58;3.83;;;0.35;;
64714;SDS011;51144;53.002;6.506;2023-04-03T00:37:23;2.25;;;0.28;;
64714;SDS011;51144;53.002;6.506;2023-04-03T00:39:49;1.52;;;0.20;;
64714;SDS011;51144;53.002;6.506;2023-04-03T00:42:15;1.10;;;0.20;;
64714;SDS011;51144;53.002;6.506;2023-04-03T00:47:07;1.58;;;0.30;;
64714;SDS011;51144;53.002;6.506;2023-04-03T00:49:36;5.05;;;0.32;;
64714;SDS011;51144;53.002;6.506;2023-04-03T00:52:03;2.83;;;0.30;;
64714;SDS011;51144;53.002;6.506;2023-04-03T00:54:31;2.15;;;0.22;;
64714;SDS011;51144;53.002;6.506;2023-04-03T00:56:59;2.35;;;0.40;;
64714;SDS011;51144;53.002;6.506;2023-04-03T00:59:27;2.65;;;0.57;;
64714;SDS011;51144;53.002;6.506;2023-04-03T01:01:58;2.15;;;0.40;;
64714;SDS011;51144;53.002;6.506;2023-04-03T01:04:32;3.83;;;0.52;;
64714;SDS011;51144;53.002;6.506;2023-04-03T01:07:03;1.95;;;0.40;;
64714;SDS011;51144;53.002;6.506;2023-04-03T01:09:53;2.38;;;0.88;;
64714;SDS011;51144;53.002;6.506;2023-04-03T01:12:23;1.40;;;0.20;;
64714;SDS011;51144;53.002;6.506;2023-04-03T01:14:59;1.50;;;0.20;;
64714;SDS011;51144;53.002;6.506;2023-04-03T01:17:28;2.47;;;0.30;;
64714;SDS011;51144;53.002;6.506;2023-04-03T01:20:02;2.50;;;0.20;;
64714;SDS011;51144;53.002;6.506;2023-04-03T01:22:45;2.40;;;0.30;;
64714;SDS011;51144;53.002;6.506;2023-04-03T01:25:12;6.37;;;0.40;;
64714;SDS011;51144;53.002;6.506;2023-04-03T01:27:38;1.38;;;0.30;;
64714;SDS011;51144;53.002;6.506;2023-04-03T01:30:04;3.15;;;0.45;;
64714;SDS011;51144;53.002;6.506;2023-04-03T01:32:30;2.92;;;0.30;;
64714;SDS011;51144;53.002;6.506;2023-04-03T01:34:56;3.50;;;0.40;;
64714;SDS011;51144;53.002;6.506;2023-04-03T01:37:21;2.50;;;0.73;;
64714;SDS011;51144;53.002;6.506;2023-04-03T01:39:47;2.05;;;0.30;;
64714;SDS011;51144;53.002;6.506;2023-04-03T01:42:13;1.50;;;0.40;;
64714;SDS011;51144;53.002;6.506;2023-04-03T01:44:38;1.42;;;0.30;;
64714;SDS011;51144;53.002;6.506;2023-04-03T01:47:05;4.22;;;0.88;;
64714;SDS011;51144;53.002;6.506;2023-04-03T01:49:32;3.38;;;0.38;;
64714;SDS011;51144;53.002;6.506;2023-04-03T01:51:57;1.95;;;0.30;;
64714;SDS011;51144;53.002;6.506;2023-04-03T01:54:23;4.65;;;1.08;;
64714;SDS011;51144;53.002;6.506;2023-04-03T01:56:49;3.78;;;0.40;;
64714;SDS011;51144;53.002;6.506;2023-04-03T01:59:14;5.00;;;0.47;;
64714;SDS011;51144;53.002;6.506;2023-04-03T02:01:42;3.50;;;0.60;;
64714;SDS011;51144;53.002;6.506;2023-04-03T02:04:10;3.13;;;0.60;;
64714;SDS011;51144;53.002;6.506;2023-04-03T02:06:36;2.30;;;0.35;;
64714;SDS011;51144;53.002;6.506;2023-04-03T02:09:02;4.43;;;0.50;;
64714;SDS011;51144;53.002;6.506;2023-04-03T02:11:28;3.08;;;0.60;;
64714;SDS011;51144;53.002;6.506;2023-04-03T02:13:54;2.00;;;0.40;;
64714;SDS011;51144;53.002;6.506;2023-04-03T02:16:19;3.38;;;0.40;;
64714;SDS011;51144;53.002;6.506;2023-04-03T02:18:45;4.82;;;0.95;;
64714;SDS011;51144;53.002;6.506;2023-04-03T02:21:10;3.45;;;0.47;;
64714;SDS011;51144;53.002;6.506;2023-04-03T02:23:36;5.57;;;0.68;;
64714;SDS011;51144;53.002;6.506;2023-04-03T02:26:12;2.40;;;0.52;;
64714;SDS011;51144;53.002;6.506;2023-04-03T02:28:39;2.70;;;0.47;;
64714;SDS011;51144;53.002;6.506;2023-04-03T02:31:06;5.28;;;0.68;;
64714;SDS011;51144;53.002;6.506;2023-04-03T02:33:32;2.78;;;0.40;;
64714;SDS011;51144;53.002;6.506;2023-04-03T02:35:58;2.38;;;0.50;;
64714;SDS011;51144;53.002;6.506;2023-04-03T02:38:24;3.40;;;0.30;;
64714;SDS011;51144;53.002;6.506;2023-04-03T02:40:50;4.70;;;0.63;;
64714;SDS011;51144;53.002;6.506;2023-04-03T02:43:17;4.43;;;0.60;;
64714;SDS011;51144;53.002;6.506;2023-04-03T02:45:43;3.72;;;0.90;;
64714;SDS011;51144;53.002;6.506;2023-04-03T02:48:09;2.20;;;0.68;;
64714;SDS011;51144;53.002;6.506;2023-04-03T02:50:34;4.38;;;0.82;;
64714;SDS011;51144;53.002;6.506;2023-04-03T02:53:00;4.75;;;0.75;;
64714;SDS011;51144;53.002;6.506;2023-04-03T02:55:26;3.83;;;1.15;;
64714;SDS011;51144;53.002;6.506;2023-04-03T02:57:51;5.97;;;0.50;;
64714;SDS011;51144;53.002;6.506;2023-04-03T03:00:17;3.92;;;1.45;;
64714;SDS011;51144;53.002;6.506;2023-04-03T03:02:43;4.40;;;0.50;;
64714;SDS011;51144;53.002;6.506;2023-04-03T03:05:09;2.28;;;0.75;;
64714;SDS011;51144;53.002;6.506;2023-04-03T03:07:34;1.42;;;0.30;;
64714;SDS011;51144;53.002;6.506;2023-04-03T03:10:00;2.63;;;0.57;;
64714;SDS011;51144;53.002;6.506;2023-04-03T03:12:25;1.92;;;0.60;;
64714;SDS011;51144;53.002;6.506;2023-04-03T03:14:51;3.55;;;0.77;;
64714;SDS011;51144;53.002;6.506;2023-04-03T03:17:17;2.80;;;0.70;;
64714;SDS011;51144;53.002;6.506;2023-04-03T03:19:43;2.83;;;0.80;;
64714;SDS011;51144;53.002;6.506;2023-04-03T03:22:10;3.38;;;0.43;;
64714;SDS011;51144;53.002;6.506;2023-04-03T03:24:36;2.55;;;0.55;;
64714;SDS011;51144;53.002;6.506;2023-04-03T03:27:02;3.75;;;1.20;;
64714;SDS011;51144;53.002;6.506;2023-04-03T03:29:27;5.53;;;1.25;;
64714;SDS011;51144;53.002;6.506;2023-04-03T03:31:53;5.55;;;0.65;;
64714;SDS011;51144;53.002;6.506;2023-04-03T03:34:18;2.88;;;0.50;;
64714;SDS011;51144;53.002;6.506;2023-04-03T03:36:44;2.90;;;0.63;;
64714;SDS011;51144;53.002;6.506;2023-04-03T03:39:10;5.95;;;0.70;;
64714;SDS011;51144;53.002;6.506;2023-04-03T03:41:36;1.52;;;0.43;;
64714;SDS011;51144;53.002;6.506;2023-04-03T03:44:01;6.25;;;1.10;;
64714;SDS011;51144;53.002;6.506;2023-04-03T03:46:27;5.82;;;1.02;;
64714;SDS011;51144;53.002;6.506;2023-04-03T03:48:52;4.90;;;0.75;;
64714;SDS011;51144;53.002;6.506;2023-04-03T03:51:18;4.60;;;0.80;;
64714;SDS011;51144;53.002;6.506;2023-04-03T03:53:44;3.53;;;0.63;;
64714;SDS011;51144;53.002;6.506;2023-04-03T03:56:09;3.88;;;0.80;;
64714;SDS011;51144;53.002;6.506;2023-04-03T03:58:35;5.68;;;2.08;;
64714;SDS011;51144;53.002;6.506;2023-04-03T04:01:02;4.35;;;0.85;;
64714;SDS011;51144;53.002;6.506;2023-04-03T04:03:28;4.05;;;0.77;;
64714;SDS011;51144;53.002;6.506;2023-04-03T04:05:54;3.92;;;0.63;;
64714;SDS011;51144;53.002;6.506;2023-04-03T04:08:20;3.90;;;1.48;;
64714;SDS011;51144;53.002;6.506;2023-04-03T04:10:45;7.25;;;1.08;;
64714;SDS011;51144;53.002;6.506;2023-04-03T04:13:11;4.50;;;1.15;;
64714;SDS011;51144;53.002;6.506;2023-04-03T04:15:36;4.90;;;1.00;;
64714;SDS011;51144;53.002;6.506;2023-04-03T04:18:02;13.20;;;1.60;;
64714;SDS011;51144;53.002;6.506;2023-04-03T04:20:28;6.22;;;0.77;;
64714;SDS011;51144;53.002;6.506;2023-04-03T04:22:54;3.65;;;0.77;;
64714;SDS011;51144;53.002;6.506;2023-04-03T04:25:20;7.80;;;1.00;;
64714;SDS011;51144;53.002;6.506;2023-04-03T04:27:45;4.07;;;0.80;;
64714;SDS011;51144;53.002;6.506;2023-04-03T04:30:11;4.78;;;1.17;;
64714;SDS011;51144;53.002;6.506;2023-04-03T04:32:37;7.30;;;1.23;;
64714;SDS011;51144;53.002;6.506;2023-04-03T04:35:03;9.77;;;1.38;;
64714;SDS011;51144;53.002;6.506;2023-04-03T04:37:29;5.07;;;1.20;;
64714;SDS011;51144;53.002;6.506;2023-04-03T04:39:55;6.28;;;1.35;;
64714;SDS011;51144;53.002;6.506;2023-04-03T04:42:21;8.32;;;1.50;;
64714;SDS011;51144;53.002;6.506;2023-04-03T04:44:46;4.13;;;1.15;;
64714;SDS011;51144;53.002;6.506;2023-04-03T04:47:12;8.27;;;1.15;;
64714;SDS011;51144;53.002;6.506;2023-04-03T04:49:37;6.25;;;0.90;;
64714;SDS011;51144;53.002;6.506;2023-04-03T04:52:03;5.10;;;1.05;;
64714;SDS011;51144;53.002;6.506;2023-04-03T04:54:29;5.68;;;1.38;;
64714;SDS011;51144;53.002;6.506;2023-04-03T04:56:55;9.93;;;2.03;;
64714;SDS011;51144;53.002;6.506;2023-04-03T04:59:20;7.20;;;1.10;;
64714;SDS011;51144;53.002;6.506;2023-04-03T05:01:46;3.63;;;1.02;;
64714;SDS011;51144;53.002;6.506;2023-04-03T05:04:12;7.80;;;1.30;;
64714;SDS011;51144;53.002;6.506;2023-04-03T05:06:38;8.57;;;2.13;;
64714;SDS011;51144;53.002;6.506;2023-04-03T05:09:04;5.93;;;1.27;;
64714;SDS011;51144;53.002;6.506;2023-04-03T05:11:30;10.52;;;2.22;;
64714;SDS011;51144;53.002;6.506;2023-04-03T05:13:56;7.55;;;1.15;;
64714;SDS011;51144;53.002;6.506;2023-04-03T05:16:21;5.20;;;1.23;;
64714;SDS011;51144;53.002;6.506;2023-04-03T05:18:47;3.55;;;1.00;;
64714;SDS011;51144;53.002;6.506;2023-04-03T05:21:13;7.30;;;2.13;;
64714;SDS011;51144;53.002;6.506;2023-04-03T05:23:38;9.10;;;1.13;;
64714;SDS011;51144;53.002;6.506;2023-04-03T05:26:04;7.90;;;1.17;;
64714;SDS011;51144;53.002;6.506;2023-04-03T05:28:30;9.93;;;0.90;;
64714;SDS011;51144;53.002;6.506;2023-04-03T05:30:57;9.23;;;1.95;;
64714;SDS011;51144;53.002;6.506;2023-04-03T05:33:23;7.18;;;1.40;;
64714;SDS011;51144;53.002;6.506;2023-04-03T05:35:51;4.55;;;1.13;;
64714;SDS011;51144;53.002;6.506;2023-04-03T05:38:17;5.68;;;1.35;;
64714;SDS011;51144;53.002;6.506;2023-04-03T05:40:43;6.85;;;1.05;;
64714;SDS011;51144;53.002;6.506;2023-04-03T05:43:09;4.97;;;1.00;;
64714;SDS011;51144;53.002;6.506;2023-04-03T05:45:34;3.00;;;0.82;;
64714;SDS011;51144;53.002;6.506;2023-04-03T05:48:00;7.10;;;1.08;;
64714;SDS011;51144;53.002;6.506;2023-04-03T05:50:26;4.50;;;0.80;;
64714;SDS011;51144;53.002;6.506;2023-04-03T05:52:52;6.05;;;1.25;;
64714;SDS011;51144;53.002;6.506;2023-04-03T05:55:21;5.30;;;1.38;;
64714;SDS011;51144;53.002;6.506;2023-04-03T05:57:46;3.90;;;1.50;;
64714;SDS011;51144;53.002;6.506;2023-04-03T06:00:13;4.22;;;1.30;;
64714;SDS011;51144;53.002;6.506;2023-04-03T06:02:40;7.28;;;1.48;;
64714;SDS011;51144;53.002;6.506;2023-04-03T06:05:07;8.88;;;1.67;;
64714;SDS011;51144;53.002;6.506;2023-04-03T06:07:34;8.10;;;1.20;;
64714;SDS011;51144;53.002;6.506;2023-04-03T06:10:00;8.32;;;1.35;;
64714;SDS011;51144;53.002;6.506;2023-04-03T06:12:26;5.75;;;1.17;;
64714;SDS011;51144;53.002;6.506;2023-04-03T06:14:54;6.40;;;1.27;;
64714;SDS011;51144;53.002;6.506;2023-04-03T06:17:20;5.05;;;1.33;;
64714;SDS011;51144;53.002;6.506;2023-04-03T06:19:46;6.88;;;1.83;;
64714;SDS011;51144;53.002;6.506;2023-04-03T06:22:12;6.57;;;1.05;;
64714;SDS011;51144;53.002;6.506;2023-04-03T06:24:38;5.22;;;1.20;;
64714;SDS011;51144;53.002;6.506;2023-04-03T06:27:04;6.03;;;1.35;;
64714;SDS011;51144;53.002;6.506;2023-04-03T06:29:30;9.18;;;1.48;;
64714;SDS011;51144;53.002;6.506;2023-04-03T06:31:56;7.10;;;1.23;;
64714;SDS011;51144;53.002;6.506;2023-04-03T06:34:22;5.20;;;1.63;;
64714;SDS011;51144;53.002;6.506;2023-04-03T06:36:48;5.47;;;1.42;;
64714;SDS011;51144;53.002;6.506;2023-04-03T06:39:20;5.70;;;1.15;;
64714;SDS011;51144;53.002;6.506;2023-04-03T06:41:47;5.50;;;1.70;;
64714;SDS011;51144;53.002;6.506;2023-04-03T06:44:14;9.50;;;1.73;;
64714;SDS011;51144;53.002;6.506;2023-04-03T06:46:41;8.60;;;1.30;;
64714;SDS011;51144;53.002;6.506;2023-04-03T06:49:07;8.27;;;1.35;;
64714;SDS011;51144;53.002;6.506;2023-04-03T06:51:34;3.80;;;0.82;;
64714;SDS011;51144;53.002;6.506;2023-04-03T06:54:00;6.15;;;1.25;;
64714;SDS011;51144;53.002;6.506;2023-04-03T06:56:27;3.75;;;0.70;;
64714;SDS011;51144;53.002;6.506;2023-04-03T06:58:53;4.10;;;0.73;;
64714;SDS011;51144;53.002;6.506;2023-04-03T07:01:22;4.63;;;1.45;;
64714;SDS011;51144;53.002;6.506;2023-04-03T07:03:48;5.55;;;1.00;;
64714;SDS011;51144;53.002;6.506;2023-04-03T07:06:14;5.32;;;1.25;;
64714;SDS011;51144;53.002;6.506;2023-04-03T07:08:41;2.72;;;0.65;;
64714;SDS011;51144;53.002;6.506;2023-04-03T07:11:08;5.22;;;0.88;;
64714;SDS011;51144;53.002;6.506;2023-04-03T07:13:34;5.45;;;1.10;;
64714;SDS011;51144;53.002;6.506;2023-04-03T07:16:01;4.25;;;1.00;;
64714;SDS011;51144;53.002;6.506;2023-04-03T07:18:28;4.38;;;0.93;;
64714;SDS011;51144;53.002;6.506;2023-04-03T07:20:54;7.25;;;0.88;;
64714;SDS011;51144;53.002;6.506;2023-04-03T07:23:21;3.45;;;0.63;;
64714;SDS011;51144;53.002;6.506;2023-04-03T07:25:47;3.85;;;0.90;;
64714;SDS011;51144;53.002;6.506;2023-04-03T07:28:15;4.20;;;0.73;;
64714;SDS011;51144;53.002;6.506;2023-04-03T07:30:42;7.07;;;1.52;;
64714;SDS011;51144;53.002;6.506;2023-04-03T07:33:12;7.35;;;0.63;;
64714;SDS011;51144;53.002;6.506;2023-04-03T07:35:39;2.90;;;0.50;;
64714;SDS011;51144;53.002;6.506;2023-04-03T07:38:05;4.00;;;0.40;;
64714;SDS011;51144;53.002;6.506;2023-04-03T07:40:31;3.75;;;0.55;;
64714;SDS011;51144;53.002;6.506;2023-04-03T07:42:57;5.75;;;0.75;;
64714;SDS011;51144;53.002;6.506;2023-04-03T07:45:23;5.22;;;0.82;;
64714;SDS011;51144;53.002;6.506;2023-04-03T07:47:49;2.90;;;0.40;;
64714;SDS011;51144;53.002;6.506;2023-04-03T07:50:15;4.10;;;0.60;;
64714;SDS011;51144;53.002;6.506;2023-04-03T07:52:41;4.22;;;0.57;;
64714;SDS011;51144;53.002;6.506;2023-04-03T07:55:07;3.88;;;0.50;;
64714;SDS011;51144;53.002;6.506;2023-04-03T07:57:33;2.65;;;0.40;;
64714;SDS011;51144;53.002;6.506;2023-04-03T08:00:00;6.30;;;0.75;;
64714;SDS011;51144;53.002;6.506;2023-04-03T08:02:26;4.18;;;0.75;;
64714;SDS011;51144;53.002;6.506;2023-04-03T08:04:51;5.35;;;0.75;;
64714;SDS011;51144;53.002;6.506;2023-04-03T08:07:17;2.78;;;0.40;;
64714;SDS011;51144;53.002;6.506;2023-04-03T08:09:43;4.25;;;0.70;;
64714;SDS011;51144;53.002;6.506;2023-04-03T08:12:09;5.47;;;0.50;;
64714;SDS011;51144;53.002;6.506;2023-04-03T08:14:36;6.78;;;0.50;;
64714;SDS011;51144;53.002;6.506;2023-04-03T08:17:02;2.30;;;0.40;;
64714;SDS011;51144;53.002;6.506;2023-04-03T08:19:30;5.18;;;0.50;;
64714;SDS011;51144;53.002;6.506;2023-04-03T08:21:56;2.30;;;0.45;;
64714;SDS011;51144;53.002;6.506;2023-04-03T08:24:23;3.25;;;0.47;;
64714;SDS011;51144;53.002;6.506;2023-04-03T08:26:49;2.08;;;0.30;;
64714;SDS011;51144;53.002;6.506;2023-04-03T08:29:15;3.67;;;0.30;;
64714;SDS011;51144;53.002;6.506;2023-04-03T08:31:41;3.15;;;0.40;;
64714;SDS011;51144;53.002;6.506;2023-04-03T08:34:07;2.58;;;0.50;;
64714;SDS011;51144;53.002;6.506;2023-04-03T08:36:33;2.70;;;0.30;;
64714;SDS011;51144;53.002;6.506;2023-04-03T08:38:59;3.53;;;0.52;;
64714;SDS011;51144;53.002;6.506;2023-04-03T08:44:14;5.00;;;0.20;;
64714;SDS011;51144;53.002;6.506;2023-04-03T08:47:20;1.70;;;0.30;;
64714;SDS011;51144;53.002;6.506;2023-04-03T08:50:02;2.13;;;0.20;;
64714;SDS011;51144;53.002;6.506;2023-04-03T08:52:42;3.35;;;0.82;;
64714;SDS011;51144;53.002;6.506;2023-04-03T08:55:22;2.35;;;0.50;;
64714;SDS011;51144;53.002;6.506;2023-04-03T08:57:49;3.05;;;0.30;;
64714;SDS011;51144;53.002;6.506;2023-04-03T09:00:20;3.55;;;0.28;;
64714;SDS011;51144;53.002;6.506;2023-04-03T09:02:53;2.85;;;0.30;;
64714;SDS011;51144;53.002;6.506;2023-04-03T09:05:35;1.60;;;0.20;;
64714;SDS011;51144;53.002;6.506;2023-04-03T09:11:04;2.22;;;0.20;;
64714;SDS011;51144;53.002;6.506;2023-04-03T09:14:22;1.98;;;0.50;;
64714;SDS011;51144;53.002;6.506;2023-04-03T09:16:49;1.90;;;0.20;;
64714;SDS011;51144;53.002;6.506;2023-04-03T09:22:00;2.17;;;0.30;;
64714;SDS011;51144;53.002;6.506;2023-04-03T09:24:38;3.03;;;0.20;;
64714;SDS011;51144;53.002;6.506;2023-04-03T09:27:06;2.88;;;0.63;;
64714;SDS011;51144;53.002;6.506;2023-04-03T09:29:35;4.97;;;0.40;;
64714;SDS011;51144;53.002;6.506;2023-04-03T09:32:50;2.15;;;0.30;;
64714;SDS011;51144;53.002;6.506;2023-04-03T09:34:56;1.58;;;0.10;;
64714;SDS011;51144;53.002;6.506;2023-04-03T09:37:42;2.78;;;0.35;;
64714;SDS011;51144;53.002;6.506;2023-04-03T09:40:27;3.25;;;0.20;;
64714;SDS011;51144;53.002;6.506;2023-04-03T09:43:02;1.80;;;0.30;;
64714;SDS011;51144;53.002;6.506;2023-04-03T09:45:45;3.03;;;0.25;;
64714;SDS011;51144;53.002;6.506;2023-04-03T09:50:38;1.60;;;0.22;;
64714;SDS011;51144;53.002;6.506;2023-04-03T09:53:31;3.13;;;0.20;;
64714;SDS011;51144;53.002;6.506;2023-04-03T09:56:18;2.35;;;0.17;;
64714;SDS011;51144;53.002;6.506;2023-04-03T09:58:51;1.15;;;0.13;;
64714;SDS011;51144;53.002;6.506;2023-04-03T10:01:36;1.75;;;0.10;;
64714;SDS011;51144;53.002;6.506;2023-04-03T10:04:05;1.80;;;0.20;;
64714;SDS011;51144;53.002;6.506;2023-04-03T10:06:32;0.85;;;0.10;;
64714;SDS011;51144;53.002;6.506;2023-04-03T10:09:04;0.60;;;0.10;;
64714;SDS011;51144;53.002;6.506;2023-04-03T10:11:38;0.63;;;0.10;;
64714;SDS011;51144;53.002;6.506;2023-04-03T10:14:26;0.77;;;0.20;;
64714;SDS011;51144;53.002;6.506;2023-04-03T10:20:00;1.52;;;0.30;;
64714;SDS011;51144;53.002;6.506;2023-04-03T10:23:00;3.80;;;0.28;;
64714;SDS011;51144;53.002;6.506;2023-04-03T10:28:10;1.38;;;0.10;;
64714;SDS011;51144;53.002;6.506;2023-04-03T10:30:56;1.55;;;0.20;;
64714;SDS011;51144;53.002;6.506;2023-04-03T10:50:10;2.63;;;0.20;;
64714;SDS011;51144;53.002;6.506;2023-04-03T10:53:07;2.72;;;0.10;;
64714;SDS011;51144;53.002;6.506;2023-04-03T10:55:51;2.00;;;0.47;;
64714;SDS011;51144;53.002;6.506;2023-04-03T10:58:34;2.65;;;0.50;;
64714;SDS011;51144;53.002;6.506;2023-04-03T11:01:16;6.43;;;0.70;;
64714;SDS011;51144;53.002;6.506;2023-04-03T11:03:47;1.75;;;0.17;;
64714;SDS011;51144;53.002;6.506;2023-04-03T11:06:17;1.27;;;0.30;;
64714;SDS011;51144;53.002;6.506;2023-04-03T11:09:02;2.67;;;0.30;;
64714;SDS011;51144;53.002;6.506;2023-04-03T11:11:34;2.42;;;0.30;;
64714;SDS011;51144;53.002;6.506;2023-04-03T11:14:15;3.05;;;0.47;;
64714;SDS011;51144;53.002;6.506;2023-04-03T11:16:52;0.70;;;0.10;;
64714;SDS011;51144;53.002;6.506;2023-04-03T11:22:23;2.55;;;0.10;;
64714;SDS011;51144;53.002;6.506;2023-04-03T11:25:21;1.67;;;0.10;;
64714;SDS011;51144;53.002;6.506;2023-04-03T11:27:57;2.83;;;0.40;;
64714;SDS011;51144;53.002;6.506;2023-04-03T11:30:28;1.65;;;0.10;;
64714;SDS011;51144;53.002;6.506;2023-04-03T11:36:08;0.85;;;0.10;;
64714;SDS011;51144;53.002;6.506;2023-04-03T11:38:41;3.63;;;0.20;;
64714;SDS011;51144;53.002;6.506;2023-04-03T11:41:09;1.17;;;0.20;;
64714;SDS011;51144;53.002;6.506;2023-04-03T11:43:56;3.15;;;0.20;;
64714;SDS011;51144;53.002;6.506;2023-04-03T12:21:18;1.80;;;0.30;;
64714;SDS011;51144;53.002;6.506;2023-04-03T12:24:02;1.17;;;0.10;;
64714;SDS011;51144;53.002;6.506;2023-04-03T12:26:43;1.63;;;0.20;;
64714;SDS011;51144;53.002;6.506;2023-04-03T12:31:55;1.33;;;0.30;;
64714;SDS011;51144;53.002;6.506;2023-04-03T12:37:17;2.88;;;0.10;;
64714;SDS011;51144;53.002;6.506;2023-04-03T12:40:07;0.85;;;0.15;;
64714;SDS011;51144;53.002;6.506;2023-04-03T12:42:55;1.20;;;0.17;;
64714;SDS011;51144;53.002;6.506;2023-04-03T12:45:30;1.45;;;0.20;;
64714;SDS011;51144;53.002;6.506;2023-04-03T12:48:12;1.38;;;0.30;;
64714;SDS011;51144;53.002;6.506;2023-04-03T12:50:40;2.30;;;0.52;;
64714;SDS011;51144;53.002;6.506;2023-04-03T12:53:15;1.70;;;0.30;;
64714;SDS011;51144;53.002;6.506;2023-04-03T12:55:46;1.42;;;0.20;;
64714;SDS011;51144;53.002;6.506;2023-04-03T13:00:42;3.28;;;0.20;;
64714;SDS011;51144;53.002;6.506;2023-04-03T13:03:19;2.13;;;0.30;;
64714;SDS011;51144;53.002;6.506;2023-04-03T13:05:49;2.10;;;0.20;;
64714;SDS011;51144;53.002;6.506;2023-04-03T13:08:22;1.20;;;0.20;;
64714;SDS011;51144;53.002;6.506;2023-04-03T13:10:51;1.85;;;0.20;;
64714;SDS011;51144;53.002;6.506;2023-04-03T13:13:23;1.15;;;0.15;;
64714;SDS011;51144;53.002;6.506;2023-04-03T13:15:48;4.13;;;0.20;;
64714;SDS011;51144;53.002;6.506;2023-04-03T13:18:34;0.60;;;0.20;;
64714;SDS011;51144;53.002;6.506;2023-04-03T13:21:03;2.40;;;0.30;;
64714;SDS011;51144;53.002;6.506;2023-04-03T13:23:48;4.22;;;0.30;;
64714;SDS011;51144;53.002;6.506;2023-04-03T13:26:17;1.23;;;0.28;;
64714;SDS011;51144;53.002;6.506;2023-04-03T13:28:45;1.67;;;0.32;;
64714;SDS011;51144;53.002;6.506;2023-04-03T13:31:17;2.10;;;0.30;;
64714;SDS011;51144;53.002;6.506;2023-04-03T13:33:56;0.93;;;0.22;;
64714;SDS011;51144;53.002;6.506;2023-04-03T13:36:37;2.10;;;0.20;;
64714;SDS011;51144;53.002;6.506;2023-04-03T13:39:27;3.20;;;0.40;;
64714;SDS011;51144;53.002;6.506;2023-04-03T13:41:55;2.42;;;0.30;;
64714;SDS011;51144;53.002;6.506;2023-04-03T13:46:49;2.80;;;0.35;;
64714;SDS011;51144;53.002;6.506;2023-04-03T13:49:20;2.30;;;0.20;;
64714;SDS011;51144;53.002;6.506;2023-04-03T13:51:47;1.60;;;0.32;;
64714;SDS011;51144;53.002;6.506;2023-04-03T13:54:19;2.72;;;0.30;;
64714;SDS011;51144;53.002;6.506;2023-04-03T13:59:27;1.60;;;0.40;;
64714;SDS011;51144;53.002;6.506;2023-04-03T14:04:30;1.52;;;0.45;;
64714;SDS011;51144;53.002;6.506;2023-04-03T14:06:58;3.33;;;0.20;;
64714;SDS011;51144;53.002;6.506;2023-04-03T14:09:26;1.67;;;0.55;;
64714;SDS011;51144;53.002;6.506;2023-04-03T14:11:57;2.35;;;0.30;;
64714;SDS011;51144;53.002;6.506;2023-04-03T14:14:31;3.40;;;0.40;;
64714;SDS011;51144;53.002;6.506;2023-04-03T14:17:00;3.20;;;0.30;;
64714;SDS011;51144;53.002;6.506;2023-04-03T14:19:34;2.60;;;0.40;;
64714;SDS011;51144;53.002;6.506;2023-04-03T14:22:03;3.05;;;0.25;;
64714;SDS011;51144;53.002;6.506;2023-04-03T14:24:37;1.33;;;0.20;;
64714;SDS011;51144;53.002;6.506;2023-04-03T14:27:05;1.13;;;0.20;;
64714;SDS011;51144;53.002;6.506;2023-04-03T14:29:41;2.53;;;0.40;;
64714;SDS011;51144;53.002;6.506;2023-04-03T14:32:06;1.42;;;0.25;;
64714;SDS011;51144;53.002;6.506;2023-04-03T14:34:32;1.25;;;0.20;;
64714;SDS011;51144;53.002;6.506;2023-04-03T14:36:58;1.33;;;0.20;;
64714;SDS011;51144;53.002;6.506;2023-04-03T14:39:23;1.85;;;0.20;;
64714;SDS011;51144;53.002;6.506;2023-04-03T14:41:49;1.48;;;0.20;;
64714;SDS011;51144;53.002;6.506;2023-04-03T14:44:15;1.73;;;0.30;;
64714;SDS011;51144;53.002;6.506;2023-04-03T14:46:42;2.38;;;0.20;;
64714;SDS011;51144;53.002;6.506;2023-04-03T14:49:15;0.85;;;0.20;;
64714;SDS011;51144;53.002;6.506;2023-04-03T14:51:45;0.98;;;0.20;;
64714;SDS011;51144;53.002;6.506;2023-04-03T14:54:12;0.88;;;0.20;;
64714;SDS011;51144;53.002;6.506;2023-04-03T14:56:44;1.75;;;0.30;;
64714;SDS011;51144;53.002;6.506;2023-04-03T14:59:11;1.42;;;0.20;;
64714;SDS011;51144;53.002;6.506;2023-04-03T15:01:38;0.80;;;0.17;;
64714;SDS011;51144;53.002;6.506;2023-04-03T15:04:14;0.90;;;0.20;;
64714;SDS011;51144;53.002;6.506;2023-04-03T15:06:41;1.92;;;0.22;;
64714;SDS011;51144;53.002;6.506;2023-04-03T15:09:12;2.50;;;0.38;;
64714;SDS011;51144;53.002;6.506;2023-04-03T15:11:45;1.95;;;0.30;;
64714;SDS011;51144;53.002;6.506;2023-04-03T15:14:11;2.85;;;0.20;;
64714;SDS011;51144;53.002;6.506;2023-04-03T15:16:37;1.30;;;0.20;;
64714;SDS011;51144;53.002;6.506;2023-04-03T15:19:02;2.15;;;0.20;;
64714;SDS011;51144;53.002;6.506;2023-04-03T15:21:28;0.50;;;0.10;;
64714;SDS011;51144;53.002;6.506;2023-04-03T15:23:54;0.90;;;0.15;;
64714;SDS011;51144;53.002;6.506;2023-04-03T15:26:19;3.08;;;0.20;;
64714;SDS011;51144;53.002;6.506;2023-04-03T15:28:45;2.20;;;0.13;;
64714;SDS011;51144;53.002;6.506;2023-04-03T15:31:11;1.63;;;0.52;;
64714;SDS011;51144;53.002;6.506;2023-04-03T15:33:37;0.82;;;0.20;;
64714;SDS011;51144;53.002;6.506;2023-04-03T15:36:03;2.38;;;0.30;;
64714;SDS011;51144;53.002;6.506;2023-04-03T15:38:30;1.60;;;0.20;;
64714;SDS011;51144;53.002;6.506;2023-04-03T15:40:55;1.77;;;0.10;;
64714;SDS011;51144;53.002;6.506;2023-04-03T15:43:22;2.42;;;0.20;;
64714;SDS011;51144;53.002;6.506;2023-04-03T15:45:48;1.85;;;0.13;;
64714;SDS011;51144;53.002;6.506;2023-04-03T15:48:15;3.15;;;0.30;;
64714;SDS011;51144;53.002;6.506;2023-04-03T15:50:41;1.20;;;0.10;;
64714;SDS011;51144;53.002;6.506;2023-04-03T15:53:07;1.95;;;0.20;;
64714;SDS011;51144;53.002;6.506;2023-04-03T15:55:35;0.80;;;0.20;;
64714;SDS011;51144;53.002;6.506;2023-04-03T15:58:02;1.38;;;0.30;;
64714;SDS011;51144;53.002;6.506;2023-04-03T16:00:28;0.80;;;0.10;;
64714;SDS011;51144;53.002;6.506;2023-04-03T16:02:58;1.80;;;0.40;;
64714;SDS011;51144;53.002;6.506;2023-04-03T16:05:29;2.22;;;0.30;;
64714;SDS011;51144;53.002;6.506;2023-04-03T16:07:55;1.23;;;0.20;;
64714;SDS011;51144;53.002;6.506;2023-04-03T16:10:21;1.55;;;0.20;;
64714;SDS011;51144;53.002;6.506;2023-04-03T16:12:47;1.70;;;0.30;;
64714;SDS011;51144;53.002;6.506;2023-04-03T16:15:13;1.08;;;0.20;;
64714;SDS011;51144;53.002;6.506;2023-04-03T16:17:39;1.50;;;0.30;;
64714;SDS011;51144;53.002;6.506;2023-04-03T16:20:08;1.42;;;0.25;;
64714;SDS011;51144;53.002;6.506;2023-04-03T16:22:35;1.75;;;0.30;;
64714;SDS011;51144;53.002;6.506;2023-04-03T16:25:01;3.17;;;0.40;;
64714;SDS011;51144;53.002;6.506;2023-04-03T16:27:29;3.22;;;0.40;;
64714;SDS011;51144;53.002;6.506;2023-04-03T16:29:56;1.33;;;0.30;;
64714;SDS011;51144;53.002;6.506;2023-04-03T16:32:22;1.55;;;0.60;;